Crockett, KY (41413)

9:37 PM EST on January 25, 2015 (GMT -0500)
Green | Change Station
CLOSE
Current Station
Personal Weather Station
Location: Olive Hill, KY
Elevation: 883 ft
Nearby Weather Stations
Active Advisory: Special Statement Active Notice: Record Report

Elev 883 ft 38.19 °N, 83.08 °W | Updated 9 minutes ago

Rain
Rain
40.5 °F
Feels Like 40 °F
N
0.0
Wind Variable Wind from North
Gusts 0.0 mph

Today
High -- | Low -- °F
--% Chance of Precip.
Yesterday
High -- | Low -- °F
Precip. -- in
7:42 AM 5:47 PM
Waxing Crescent, 38% visible
Pressure 29.69 in
Visibility 10.0 miles
Clouds Scattered Clouds 5500 ft
Overcast 7000 ft
Windchill 40 °F
Dew Point 29 °F
Humidity 63%
Rainfall -999.00 in
Snow Depth Not available.
UV 0 out of 12
Pollen .10 out of 12
Air Quality Not available.
Flu Activity Not available.
METAR KSJS 260215Z AUTO 06004KT 10SM SCT055 OVC070 06/03 A2969 RMK AO2 T00560032

More Conditions Fewer Conditions

Pressure 29.69 in
Visibility 10.0 miles
Clouds Scattered Clouds 5500 ft
Overcast 7000 ft
Windchill 40 °F
Dew Point 29 °F
Humidity 63%
Rainfall -999.00 in
Snow Depth Not available.
UV 0 out of 12
Pollen .10 out of 12
Air Quality Not available.
Flu Activity Not available.
METAR KSJS 260215Z AUTO 06004KT 10SM SCT055 OVC070 06/03 A2969 RMK AO2 T00560032

More Conditions Fewer Conditions

10-Day Weather Forecast

Almanac

Astronomy

Jan. 25, 2015 Rise Set
Actual Time
Civil Twilight
Nautical Twilight
Astronomical Twilight
Moon
Length of Visible Light
Length of Day
Tomorrow will be .
, % of the Moon is Illuminated

Today's Extremes

State Highs State Lows

Community

WunderPhotos

Upload Photos

1,790,082 photos uploaded!

WunderBlogs® & News

Nearby

Air Quality

  Air Quality AQ Index Pollutant
Not available.

Snow Depth

Station Depth Elevation

Earthquake Activity

City Distance Mag. Time & Date
Minimum magnitude displayed is 2.5.

Coastal Water Temperatures

Place Temperature

Nearby Weather Stations